Time;durP1;ratioP1;P1;durP2;ratioP2;P2;SDS_P1;SDS_P2;PMS_P1;PMS_P2;Temp;Humidity;BMP_temperature;BMP_pressure;BME280_temperature;BME280_humidity;BME280_pressure;Samples;Min_cycle;Max_cycle;Signal;HPM_P1;HPM_P2
2023/07/03 00:02:19;;;;;;;14.40;11.53;;;;;;;;;;5066512;28;20540;-59
2023/07/03 00:04:45;;;;;;;13.33;11.40;;;;;;;;;;5056486;28;20355;-59
2023/07/03 00:07:11;;;;;;;13.38;11.88;;;;;;;;;;5067072;28;20088;-61
2023/07/03 00:09:36;;;;;;;14.93;11.65;;;;;;;;;;5029481;28;20496;-61
2023/07/03 00:12:01;;;;;;;14.17;11.97;;;;;;;;;;5052797;28;20020;-60
2023/07/03 00:14:26;;;;;;;14.02;11.68;;;;;;;;;;5046893;28;20279;-59
2023/07/03 00:16:52;;;;;;;13.87;11.53;;;;;;;;;;5048058;28;20406;-59
2023/07/03 00:19:17;;;;;;;12.77;11.30;;;;;;;;;;5051727;28;20254;-59
2023/07/03 00:21:43;;;;;;;14.43;12.07;;;;;;;;;;5063005;28;20382;-61
2023/07/03 00:24:09;;;;;;;14.63;11.73;;;;;;;;;;5052945;28;20179;-61
2023/07/03 00:26:34;;;;;;;14.32;12.60;;;;;;;;;;5053142;28;20016;-59
2023/07/03 00:29:00;;;;;;;13.73;12.07;;;;;;;;;;5066937;28;20012;-60
2023/07/03 00:31:25;;;;;;;14.57;11.90;;;;;;;;;;5066576;28;20266;-60
2023/07/03 00:33:50;;;;;;;16.03;11.77;;;;;;;;;;5048018;28;20299;-58
2023/07/03 00:36:17;;;;;;;14.50;12.47;;;;;;;;;;5046912;28;20805;-59
2023/07/03 00:38:42;;;;;;;14.82;11.93;;;;;;;;;;5054022;28;20036;-60
2023/07/03 00:41:07;;;;;;;13.63;12.23;;;;;;;;;;5066533;28;20025;-61
2023/07/03 00:43:33;;;;;;;13.90;11.70;;;;;;;;;;5043391;28;20260;-60
2023/07/03 00:45:58;;;;;;;15.23;12.53;;;;;;;;;;5064170;28;20266;-60
2023/07/03 00:48:23;;;;;;;14.32;12.18;;;;;;;;;;5065164;28;20517;-60
2023/07/03 00:50:48;;;;;;;13.77;12.23;;;;;;;;;;5065423;28;20127;-58
2023/07/03 00:53:14;;;;;;;14.23;12.23;;;;;;;;;;5057000;28;20523;-58
2023/07/03 00:55:39;;;;;;;13.50;11.80;;;;;;;;;;5043282;28;20770;-59
2023/07/03 00:58:04;;;;;;;16.00;12.37;;;;;;;;;;5065914;28;20250;-60
2023/07/03 01:00:33;;;;;;;13.20;11.77;;;;;;;;;;5074704;28;20059;-60
2023/07/03 01:02:59;;;;;;;14.83;12.37;;;;;;;;;;5047706;28;20286;-58
2023/07/03 01:05:26;;;;;;;14.93;12.75;;;;;;;;;;5066043;28;20424;-59
2023/07/03 01:07:51;;;;;;;14.63;13.13;;;;;;;;;;5048222;28;20037;-57
2023/07/03 01:10:18;;;;;;;14.90;11.47;;;;;;;;;;5047736;28;20036;-59
2023/07/03 01:12:45;;;;;;;14.95;12.35;;;;;;;;;;5047423;28;20307;-59
2023/07/03 01:15:11;;;;;;;15.55;12.32;;;;;;;;;;5054886;28;20458;-60
2023/07/03 01:17:37;;;;;;;14.65;13.00;;;;;;;;;;5028139;28;20444;-59
2023/07/03 01:20:04;;;;;;;15.15;13.20;;;;;;;;;;5054656;28;20101;-59
2023/07/03 01:22:31;;;;;;;15.60;13.77;;;;;;;;;;5060300;28;20515;-58
2023/07/03 01:25:00;;;;;;;14.85;13.25;;;;;;;;;;5038232;28;20493;-59
2023/07/03 01:27:32;;;;;;;14.27;12.57;;;;;;;;;;5053784;28;20017;-58
2023/07/03 01:29:57;;;;;;;15.40;12.90;;;;;;;;;;5067788;28;20036;-60
2023/07/03 01:32:23;;;;;;;15.07;13.33;;;;;;;;;;5054742;28;20138;-60
2023/07/03 01:34:49;;;;;;;14.68;12.20;;;;;;;;;;5053510;28;20419;-59
2023/07/03 01:37:14;;;;;;;14.73;13.05;;;;;;;;;;5044419;28;20033;-60
2023/07/03 01:39:40;;;;;;;14.38;12.77;;;;;;;;;;5030644;28;20024;-60
2023/07/03 01:42:06;;;;;;;15.07;12.98;;;;;;;;;;5047571;28;20115;-58
2023/07/03 01:44:31;;;;;;;16.83;13.93;;;;;;;;;;5046655;28;20123;-59
2023/07/03 01:47:03;;;;;;;14.98;13.25;;;;;;;;;;5065692;28;20078;-60
2023/07/03 01:49:28;;;;;;;16.23;13.68;;;;;;;;;;5065550;28;20032;-60
2023/07/03 01:51:58;;;;;;;15.97;13.03;;;;;;;;;;5047229;28;20369;-59
2023/07/03 01:54:25;;;;;;;16.88;13.90;;;;;;;;;;5039754;28;20158;-59
2023/07/03 01:56:51;;;;;;;16.80;13.38;;;;;;;;;;5034737;28;20067;-61
2023/07/03 01:59:17;;;;;;;15.82;13.85;;;;;;;;;;5064810;28;20127;-59
2023/07/03 02:02:00;;;;;;;16.30;12.95;;;;;;;;;;5030700;28;20110;-58
2023/07/03 02:04:35;;;;;;;15.45;13.45;;;;;;;;;;5064493;28;20098;-58
2023/07/03 02:07:01;;;;;;;16.05;13.43;;;;;;;;;;5047266;28;20119;-59
2023/07/03 02:09:26;;;;;;;15.63;13.27;;;;;;;;;;5031945;28;20060;-60
2023/07/03 02:11:52;;;;;;;15.83;13.47;;;;;;;;;;5028310;28;20580;-58
2023/07/03 02:14:17;;;;;;;16.20;13.40;;;;;;;;;;5044541;28;20376;-61
2023/07/03 02:16:46;;;;;;;16.75;13.77;;;;;;;;;;5057049;28;20068;-60
2023/07/03 02:19:13;;;;;;;15.00;13.38;;;;;;;;;;5047600;28;20047;-59
2023/07/03 02:21:39;;;;;;;14.77;13.18;;;;;;;;;;5063167;28;20064;-62
2023/07/03 02:24:04;;;;;;;15.13;12.75;;;;;;;;;;5058563;28;20060;-59
2023/07/03 02:26:30;;;;;;;15.57;13.40;;;;;;;;;;5063535;28;20118;-59
2023/07/03 02:28:55;;;;;;;14.63;12.63;;;;;;;;;;5064791;28;20029;-59
2023/07/03 02:31:20;;;;;;;15.60;13.10;;;;;;;;;;5064758;28;20037;-59
2023/07/03 02:33:45;;;;;;;17.13;13.77;;;;;;;;;;5056336;28;20311;-59
2023/07/03 02:36:11;;;;;;;14.80;13.00;;;;;;;;;;5046080;28;20068;-59
2023/07/03 02:38:36;;;;;;;15.60;12.37;;;;;;;;;;5064052;28;20831;-59
2023/07/03 02:41:02;;;;;;;15.20;12.57;;;;;;;;;;5042646;28;20298;-61
2023/07/03 02:43:28;;;;;;;15.35;12.60;;;;;;;;;;5044058;28;20303;-60
2023/07/03 02:45:53;;;;;;;15.23;13.18;;;;;;;;;;5044143;28;20045;-59
2023/07/03 02:48:19;;;;;;;15.87;12.43;;;;;;;;;;5045897;28;20521;-59
2023/07/03 02:50:44;;;;;;;15.82;12.95;;;;;;;;;;5064189;28;20585;-59
2023/07/03 02:53:09;;;;;;;18.07;13.63;;;;;;;;;;5060918;28;20505;-59
2023/07/03 02:55:34;;;;;;;15.40;12.97;;;;;;;;;;5035176;28;20461;-60
2023/07/03 02:57:59;;;;;;;15.93;12.07;;;;;;;;;;5060561;28;20509;-61
2023/07/03 03:00:25;;;;;;;14.45;12.77;;;;;;;;;;5064371;28;20459;-59
2023/07/03 03:02:50;;;;;;;16.33;12.70;;;;;;;;;;5064209;28;20048;-59
2023/07/03 03:05:15;;;;;;;15.70;13.00;;;;;;;;;;5025429;28;20174;-60
2023/07/03 03:07:40;;;;;;;16.02;12.85;;;;;;;;;;5026257;28;20562;-59
2023/07/03 03:10:06;;;;;;;15.30;12.40;;;;;;;;;;5047840;28;20041;-60
2023/07/03 03:12:31;;;;;;;15.27;12.45;;;;;;;;;;5043807;28;20346;-60
2023/07/03 03:14:57;;;;;;;13.67;12.03;;;;;;;;;;5043613;28;20044;-59
2023/07/03 03:17:22;;;;;;;14.83;12.90;;;;;;;;;;5043388;28;20374;-59
2023/07/03 03:19:47;;;;;;;15.00;13.00;;;;;;;;;;5043985;28;20126;-58
2023/07/03 03:22:13;;;;;;;14.77;12.77;;;;;;;;;;5037436;28;20041;-60
2023/07/03 03:24:38;;;;;;;15.55;13.25;;;;;;;;;;5043563;28;20040;-61
2023/07/03 03:27:06;;;;;;;14.73;12.70;;;;;;;;;;5061852;28;20040;-60
2023/07/03 03:29:32;;;;;;;14.93;12.40;;;;;;;;;;5054488;28;20394;-59
2023/07/03 03:31:57;;;;;;;14.30;12.75;;;;;;;;;;5043885;28;20044;-59
2023/07/03 03:34:22;;;;;;;16.33;13.07;;;;;;;;;;5046616;28;20048;-59
2023/07/03 03:36:48;;;;;;;14.57;12.63;;;;;;;;;;5043545;28;20043;-59
2023/07/03 03:39:13;;;;;;;14.03;12.37;;;;;;;;;;5028706;28;20036;-60
2023/07/03 03:41:38;;;;;;;15.00;13.20;;;;;;;;;;5025696;28;20389;-58
2023/07/03 03:44:03;;;;;;;16.07;13.03;;;;;;;;;;5031954;28;20185;-61
2023/07/03 03:46:29;;;;;;;16.83;12.90;;;;;;;;;;5063534;28;20749;-59
2023/07/03 03:48:54;;;;;;;15.57;13.27;;;;;;;;;;5046506;28;20289;-59
2023/07/03 03:51:19;;;;;;;14.70;12.00;;;;;;;;;;5052905;28;20199;-60
2023/07/03 03:53:44;;;;;;;16.42;12.75;;;;;;;;;;5060443;28;20444;-58
2023/07/03 03:56:10;;;;;;;15.33;12.60;;;;;;;;;;5046661;28;20108;-58
2023/07/03 03:58:35;;;;;;;14.80;12.60;;;;;;;;;;5063829;28;20638;-59
2023/07/03 04:01:01;;;;;;;15.73;13.13;;;;;;;;;;5057300;28;20877;-59
2023/07/03 04:03:26;;;;;;;14.75;12.73;;;;;;;;;;5063439;28;20483;-59
2023/07/03 04:05:51;;;;;;;14.55;12.68;;;;;;;;;;5044869;28;20037;-61
2023/07/03 04:08:16;;;;;;;15.07;12.57;;;;;;;;;;5058226;28;20115;-58
2023/07/03 04:10:42;;;;;;;16.43;13.10;;;;;;;;;;5062359;28;20032;-60
2023/07/03 04:13:08;;;;;;;16.30;12.90;;;;;;;;;;5043986;28;20081;-59
2023/07/03 04:15:33;;;;;;;14.80;12.75;;;;;;;;;;5059644;28;20063;-60
2023/07/03 04:17:59;;;;;;;15.07;13.00;;;;;;;;;;5062202;28;20073;-58
2023/07/03 04:20:25;;;;;;;15.88;12.20;;;;;;;;;;5062405;28;20028;-57
2023/07/03 04:22:50;;;;;;;16.17;12.48;;;;;;;;;;5043799;28;20032;-61
2023/07/03 04:25:16;;;;;;;13.48;11.75;;;;;;;;;;5060749;28;20045;-58
2023/07/03 04:27:41;;;;;;;14.95;13.07;;;;;;;;;;5062239;28;20068;-61
2023/07/03 04:30:06;;;;;;;15.40;12.63;;;;;;;;;;5066203;28;20042;-58
2023/07/03 04:32:32;;;;;;;15.27;12.55;;;;;;;;;;5064623;28;20330;-60
2023/07/03 04:34:57;;;;;;;13.63;11.88;;;;;;;;;;5049700;28;20598;-60
2023/07/03 04:37:26;;;;;;;16.87;12.80;;;;;;;;;;5063232;28;20047;-60
2023/07/03 04:39:51;;;;;;;15.40;12.90;;;;;;;;;;5064977;28;20382;-60
2023/07/03 04:42:16;;;;;;;15.30;12.82;;;;;;;;;;5048191;28;20452;-58
2023/07/03 04:44:42;;;;;;;14.17;11.83;;;;;;;;;;5045152;28;20025;-59
2023/07/03 04:47:07;;;;;;;14.43;12.00;;;;;;;;;;5030039;28;20799;-59
2023/07/03 04:49:33;;;;;;;15.95;12.65;;;;;;;;;;5066592;28;20336;-60
2023/07/03 04:51:58;;;;;;;14.63;12.25;;;;;;;;;;5058517;28;20118;-59
2023/07/03 04:54:24;;;;;;;15.05;11.90;;;;;;;;;;5061316;28;20128;-59
2023/07/03 04:56:49;;;;;;;15.25;12.27;;;;;;;;;;5058954;28;20123;-58
2023/07/03 04:59:14;;;;;;;13.90;12.35;;;;;;;;;;5058283;28;20033;-58
2023/07/03 05:01:42;;;;;;;15.00;12.15;;;;;;;;;;5059313;28;20029;-58
2023/07/03 05:04:11;;;;;;;16.10;12.20;;;;;;;;;;5063748;28;20171;-58
2023/07/03 05:06:36;;;;;;;14.80;12.20;;;;;;;;;;5059013;28;20240;-59
2023/07/03 05:09:01;;;;;;;16.25;11.30;;;;;;;;;;5061471;28;20036;-57
2023/07/03 05:11:27;;;;;;;14.63;11.57;;;;;;;;;;5052526;28;20520;-58
2023/07/03 05:13:52;;;;;;;15.18;12.23;;;;;;;;;;5062973;28;20130;-59
2023/07/03 05:16:18;;;;;;;14.90;11.97;;;;;;;;;;5061377;28;20054;-60
2023/07/03 05:18:43;;;;;;;17.57;12.00;;;;;;;;;;5060070;28;20045;-59
2023/07/03 05:21:08;;;;;;;14.70;11.38;;;;;;;;;;5038840;28;20299;-59
2023/07/03 05:23:34;;;;;;;13.93;11.35;;;;;;;;;;5060822;28;20086;-59
2023/07/03 05:25:59;;;;;;;19.38;12.82;;;;;;;;;;5060079;28;20040;-59
2023/07/03 05:28:25;;;;;;;18.10;11.73;;;;;;;;;;5060292;28;20511;-56
2023/07/03 05:30:55;;;;;;;17.08;11.93;;;;;;;;;;5062698;28;20086;-60
2023/07/03 05:33:20;;;;;;;15.38;11.52;;;;;;;;;;5062808;28;20485;-59
2023/07/03 05:35:45;;;;;;;14.90;12.03;;;;;;;;;;5062547;28;20025;-59
2023/07/03 05:38:10;;;;;;;14.53;11.73;;;;;;;;;;5056335;28;20744;-59
2023/07/03 05:40:36;;;;;;;18.23;12.17;;;;;;;;;;5061749;28;20422;-58
2023/07/03 05:43:01;;;;;;;15.87;12.30;;;;;;;;;;5061843;28;20914;-60
2023/07/03 05:45:26;;;;;;;16.57;12.30;;;;;;;;;;5055741;28;20052;-61
2023/07/03 05:47:51;;;;;;;15.27;12.43;;;;;;;;;;5057461;28;20281;-61
2023/07/03 05:50:16;;;;;;;14.43;11.98;;;;;;;;;;5045379;28;20059;-60
2023/07/03 05:52:43;;;;;;;14.67;11.63;;;;;;;;;;5055949;28;20024;-60
2023/07/03 05:55:08;;;;;;;16.48;12.73;;;;;;;;;;5060787;28;20047;-60
2023/07/03 05:57:34;;;;;;;13.67;11.53;;;;;;;;;;5061555;28;20008;-63
2023/07/03 05:59:59;;;;;;;14.00;11.30;;;;;;;;;;5057815;28;20279;-61
2023/07/03 06:02:24;;;;;;;14.95;11.88;;;;;;;;;;5039892;28;20282;-63
2023/07/03 06:04:50;;;;;;;14.82;11.15;;;;;;;;;;5060570;28;20020;-62
2023/07/03 06:07:16;;;;;;;15.00;11.20;;;;;;;;;;5060405;28;20020;-61
2023/07/03 06:09:41;;;;;;;13.77;10.70;;;;;;;;;;5061954;28;20037;-61
2023/07/03 06:12:07;;;;;;;16.13;11.38;;;;;;;;;;5039045;28;20271;-59
2023/07/03 06:14:32;;;;;;;14.30;11.80;;;;;;;;;;5059554;28;20024;-61
2023/07/03 06:16:58;;;;;;;13.97;11.50;;;;;;;;;;5053393;28;20040;-61
2023/07/03 06:19:24;;;;;;;14.70;11.43;;;;;;;;;;5058530;28;20464;-59
2023/07/03 06:21:49;;;;;;;14.98;11.18;;;;;;;;;;5053663;28;20017;-61
2023/07/03 06:24:14;;;;;;;14.07;11.30;;;;;;;;;;5060655;28;20610;-59
2023/07/03 06:26:39;;;;;;;14.13;10.80;;;;;;;;;;5056713;28;20289;-59
2023/07/03 06:29:05;;;;;;;16.25;11.48;;;;;;;;;;5041818;28;20279;-59
2023/07/03 06:31:30;;;;;;;16.08;11.50;;;;;;;;;;5041126;28;20122;-60
2023/07/03 06:33:56;;;;;;;11.83;10.53;;;;;;;;;;5061749;28;20405;-59
2023/07/03 06:36:21;;;;;;;14.67;10.93;;;;;;;;;;5060215;28;20281;-61
2023/07/03 06:38:49;;;;;;;15.18;11.68;;;;;;;;;;5032244;28;20025;-61
2023/07/03 06:41:14;;;;;;;14.50;11.80;;;;;;;;;;5041727;28;20025;-60
2023/07/03 06:43:40;;;;;;;15.05;11.00;;;;;;;;;;5062890;28;20473;-58
2023/07/03 06:46:05;;;;;;;12.50;10.37;;;;;;;;;;5056847;28;20020;-61
2023/07/03 06:48:30;;;;;;;13.17;10.70;;;;;;;;;;5059402;28;20055;-59
2023/07/03 06:51:05;;;;;;;13.40;10.75;;;;;;;;;;5060642;28;20028;-60
2023/07/03 06:53:30;;;;;;;18.30;12.13;;;;;;;;;;5056298;28;20128;-61
2023/07/03 06:55:56;;;;;;;12.40;10.37;;;;;;;;;;5061572;28;20527;-59
2023/07/03 06:58:22;;;;;;;12.65;10.50;;;;;;;;;;5042473;28;20274;-60
2023/07/03 07:00:47;;;;;;;11.83;10.17;;;;;;;;;;5062910;28;20081;-59
2023/07/03 07:03:12;;;;;;;12.07;9.73;;;;;;;;;;5060531;28;20295;-60
2023/07/03 07:05:37;;;;;;;10.80;9.47;;;;;;;;;;5040610;28;20845;-60
2023/07/03 07:08:03;;;;;;;13.07;10.27;;;;;;;;;;5038320;28;20417;-61
2023/07/03 07:10:28;;;;;;;12.57;10.35;;;;;;;;;;5060751;28;20413;-61
2023/07/03 07:12:53;;;;;;;12.15;10.40;;;;;;;;;;5035347;28;20048;-60
2023/07/03 07:15:18;;;;;;;12.00;9.70;;;;;;;;;;5059789;28;20037;-60
2023/07/03 07:17:44;;;;;;;12.77;9.40;;;;;;;;;;5059498;28;20043;-61
2023/07/03 07:20:09;;;;;;;12.68;10.45;;;;;;;;;;5057345;28;20287;-61
2023/07/03 07:22:35;;;;;;;13.35;10.65;;;;;;;;;;5064751;28;20035;-60
2023/07/03 07:25:00;;;;;;;13.90;10.70;;;;;;;;;;5061558;28;20453;-60
2023/07/03 07:27:25;;;;;;;12.95;9.95;;;;;;;;;;5056147;28;20638;-60
2023/07/03 07:29:50;;;;;;;11.03;9.40;;;;;;;;;;5042074;28;20413;-60
2023/07/03 07:32:16;;;;;;;12.47;10.13;;;;;;;;;;5061191;28;20315;-60
2023/07/03 07:34:41;;;;;;;11.13;9.87;;;;;;;;;;5058419;28;20114;-60
2023/07/03 07:37:06;;;;;;;13.23;9.80;;;;;;;;;;5056892;28;20056;-62
2023/07/03 07:39:32;;;;;;;11.32;9.80;;;;;;;;;;5040775;28;20313;-60
2023/07/03 07:41:57;;;;;;;12.48;9.77;;;;;;;;;;5061518;28;20035;-59
2023/07/03 07:44:22;;;;;;;13.35;9.48;;;;;;;;;;5060831;28;20560;-61
2023/07/03 07:46:48;;;;;;;10.25;9.15;;;;;;;;;;5054875;28;20051;-61
2023/07/03 07:49:13;;;;;;;12.93;9.30;;;;;;;;;;5054091;28;20386;-60
2023/07/03 07:51:39;;;;;;;11.23;9.47;;;;;;;;;;5057565;28;20032;-61
2023/07/03 07:54:05;;;;;;;12.00;9.68;;;;;;;;;;5048195;28;20891;-62
2023/07/03 07:56:30;;;;;;;12.68;9.90;;;;;;;;;;5054343;28;20033;-58
2023/07/03 07:58:55;;;;;;;12.20;9.60;;;;;;;;;;5059192;28;20115;-61
2023/07/03 08:01:21;;;;;;;11.20;9.50;;;;;;;;;;5036003;28;20329;-59
2023/07/03 08:03:46;;;;;;;12.73;9.27;;;;;;;;;;5062023;28;20048;-59
2023/07/03 08:06:11;;;;;;;11.03;8.73;;;;;;;;;;5047238;28;20275;-60
2023/07/03 08:08:37;;;;;;;11.02;8.98;;;;;;;;;;5030721;28;20279;-60
2023/07/03 08:11:03;;;;;;;12.07;8.90;;;;;;;;;;5029665;28;20124;-59
2023/07/03 08:13:28;;;;;;;10.07;8.02;;;;;;;;;;5046217;28;20500;-59
2023/07/03 08:15:54;;;;;;;11.88;8.82;;;;;;;;;;5063883;28;20036;-60
2023/07/03 08:18:19;;;;;;;11.25;8.48;;;;;;;;;;5066521;28;20395;-59
2023/07/03 08:20:45;;;;;;;9.50;7.82;;;;;;;;;;5061860;28;20517;-60
2023/07/03 08:23:10;;;;;;;11.60;8.87;;;;;;;;;;5058565;28;20040;-59
2023/07/03 08:25:35;;;;;;;9.20;7.75;;;;;;;;;;5066210;28;20323;-60
2023/07/03 08:28:00;;;;;;;11.73;8.77;;;;;;;;;;5049973;28;20044;-59
2023/07/03 08:30:26;;;;;;;12.20;8.37;;;;;;;;;;5057580;28;20286;-61
2023/07/03 08:32:51;;;;;;;10.10;8.77;;;;;;;;;;5047894;28;20059;-61
2023/07/03 08:35:17;;;;;;;10.60;8.33;;;;;;;;;;5053227;28;20278;-61
2023/07/03 08:37:42;;;;;;;10.05;7.60;;;;;;;;;;5061336;28;20855;-59
2023/07/03 08:40:08;;;;;;;10.45;8.20;;;;;;;;;;5043075;28;20568;-61
2023/07/03 08:42:47;;;;;;;10.52;7.60;;;;;;;;;;5057551;28;20134;-60
2023/07/03 08:45:13;;;;;;;8.48;7.15;;;;;;;;;;5065904;28;20044;-59
2023/07/03 08:47:38;;;;;;;10.65;7.05;;;;;;;;;;5043218;28;20032;-60
2023/07/03 08:50:04;;;;;;;9.23;7.53;;;;;;;;;;5048307;28;20056;-60
2023/07/03 08:52:35;;;;;;;9.77;7.28;;;;;;;;;;5055814;28;20048;-60
2023/07/03 08:55:00;;;;;;;10.15;7.50;;;;;;;;;;5043144;28;20039;-62
2023/07/03 08:57:25;;;;;;;9.50;7.70;;;;;;;;;;5066074;28;20036;-62
2023/07/03 08:59:52;;;;;;;10.47;7.97;;;;;;;;;;5064218;28;20132;-59
2023/07/03 09:02:19;;;;;;;11.60;7.90;;;;;;;;;;5061982;28;20700;-60
2023/07/03 09:04:44;;;;;;;12.38;7.38;;;;;;;;;;5045754;28;20032;-62
2023/07/03 09:07:11;;;;;;;8.98;7.35;;;;;;;;;;5057271;28;20090;-61
2023/07/03 09:09:45;;;;;;;9.50;7.85;;;;;;;;;;5054410;28;20041;-60
2023/07/03 09:12:28;;;;;;;9.73;7.93;;;;;;;;;;5036300;28;20288;-60
2023/07/03 09:15:13;;;;;;;12.65;7.75;;;;;;;;;;5053893;28;20156;-58
2023/07/03 09:17:38;;;;;;;10.23;7.82;;;;;;;;;;5055706;28;20044;-60
2023/07/03 09:20:05;;;;;;;9.50;7.37;;;;;;;;;;5046831;28;20098;-58
2023/07/03 09:22:36;;;;;;;9.48;7.13;;;;;;;;;;5047844;28;20409;-57
2023/07/03 09:25:03;;;;;;;10.00;7.43;;;;;;;;;;5037132;28;20044;-59
2023/07/03 09:27:28;;;;;;;10.25;7.82;;;;;;;;;;5045772;28;20062;-59
2023/07/03 09:29:54;;;;;;;18.30;9.88;;;;;;;;;;5055830;28;20351;-58
2023/07/03 09:32:27;;;;;;;34.03;15.20;;;;;;;;;;5056936;28;20036;-60
2023/07/03 09:35:02;;;;;;;90.82;29.52;;;;;;;;;;5056148;28;20556;-60
2023/07/03 09:37:28;;;;;;;88.07;40.63;;;;;;;;;;5055561;28;20037;-58
2023/07/03 09:39:53;;;;;;;55.28;25.90;;;;;;;;;;5055962;28;20046;-59
2023/07/03 09:42:18;;;;;;;49.17;23.40;;;;;;;;;;5057134;28;20033;-59
2023/07/03 09:44:44;;;;;;;30.23;15.65;;;;;;;;;;5036018;28;20025;-59
2023/07/03 09:47:22;;;;;;;45.20;20.17;;;;;;;;;;5056815;28;20078;-58
2023/07/03 09:49:47;;;;;;;35.40;18.27;;;;;;;;;;5055521;28;20040;-58
2023/07/03 09:52:13;;;;;;;36.00;17.38;;;;;;;;;;5056644;28;20110;-59
2023/07/03 09:54:40;;;;;;;23.27;11.38;;;;;;;;;;5036646;28;20044;-61
2023/07/03 09:57:06;;;;;;;15.13;10.48;;;;;;;;;;5035410;28;20491;-60
2023/07/03 09:59:31;;;;;;;11.27;8.13;;;;;;;;;;5055098;28;20033;-61
2023/07/03 10:01:57;;;;;;;11.47;7.77;;;;;;;;;;5038727;28;20137;-60
2023/07/03 10:04:23;;;;;;;13.57;8.20;;;;;;;;;;5037272;28;20298;-62
2023/07/03 10:06:56;;;;;;;11.13;7.88;;;;;;;;;;5020972;28;20036;-62
2023/07/03 10:09:25;;;;;;;10.80;7.55;;;;;;;;;;5058379;28;20173;-61
2023/07/03 10:11:53;;;;;;;9.80;7.10;;;;;;;;;;5047179;28;20800;-59
2023/07/03 10:14:27;;;;;;;10.85;6.97;;;;;;;;;;5046745;28;20186;-63
2023/07/03 10:16:52;;;;;;;8.57;6.20;;;;;;;;;;5037820;28;20052;-60
2023/07/03 10:19:18;;;;;;;9.20;7.47;;;;;;;;;;5031987;28;20033;-59
2023/07/03 10:21:43;;;;;;;10.25;6.75;;;;;;;;;;5040311;28;20049;-61
2023/07/03 10:24:08;;;;;;;8.97;6.20;;;;;;;;;;5056452;28;20035;-60
2023/07/03 10:26:39;;;;;;;9.70;6.60;;;;;;;;;;5048427;28;20288;-57
2023/07/03 10:29:19;;;;;;;8.60;6.22;;;;;;;;;;5034633;28;20063;-58
2023/07/03 10:31:49;;;;;;;7.80;5.78;;;;;;;;;;5035776;28;20168;-59
2023/07/03 10:34:19;;;;;;;8.23;5.90;;;;;;;;;;5059387;28;20044;-58
2023/07/03 10:36:44;;;;;;;9.90;6.32;;;;;;;;;;5038613;28;20514;-59
2023/07/03 10:39:14;;;;;;;9.13;6.00;;;;;;;;;;5056343;28;20390;-59
2023/07/03 10:41:39;;;;;;;7.93;6.25;;;;;;;;;;5039653;28;20683;-59
2023/07/03 10:44:07;;;;;;;8.88;6.40;;;;;;;;;;5056713;28;20150;-61
2023/07/03 10:46:37;;;;;;;8.38;6.03;;;;;;;;;;5059327;28;20070;-59
2023/07/03 10:49:03;;;;;;;10.20;6.00;;;;;;;;;;5051654;28;20033;-58
2023/07/03 10:51:34;;;;;;;8.13;5.75;;;;;;;;;;5060919;28;20037;-59
2023/07/03 10:54:03;;;;;;;7.95;5.78;;;;;;;;;;5058018;28;20060;-59
2023/07/03 10:56:31;;;;;;;8.43;6.38;;;;;;;;;;5060668;28;20367;-59
2023/07/03 10:59:09;;;;;;;9.30;5.75;;;;;;;;;;5060271;28;20045;-59
2023/07/03 11:01:48;;;;;;;7.70;5.55;;;;;;;;;;5042009;28;20116;-59
2023/07/03 11:04:32;;;;;;;8.33;6.13;;;;;;;;;;5035194;28;20139;-61
2023/07/03 11:07:01;;;;;;;8.05;5.93;;;;;;;;;;5058099;28;20058;-59
2023/07/03 11:09:29;;;;;;;6.63;5.20;;;;;;;;;;5056479;28;20051;-59
2023/07/03 11:12:13;;;;;;;7.43;5.80;;;;;;;;;;5059209;28;20543;-60
2023/07/03 11:14:55;;;;;;;7.68;6.10;;;;;;;;;;5047664;28;20330;-59
2023/07/03 11:17:39;;;;;;;8.15;5.32;;;;;;;;;;5048620;28;20040;-60
2023/07/03 11:20:23;;;;;;;7.03;5.25;;;;;;;;;;5053954;28;20060;-60
2023/07/03 11:23:00;;;;;;;6.50;5.55;;;;;;;;;;5058457;28;20032;-60
2023/07/03 11:25:27;;;;;;;9.43;6.00;;;;;;;;;;5055428;28;20067;-60
2023/07/03 11:27:55;;;;;;;7.70;5.43;;;;;;;;;;5050070;28;20032;-60
2023/07/03 11:30:21;;;;;;;7.63;5.75;;;;;;;;;;5057246;28;20544;-60
2023/07/03 11:32:46;;;;;;;6.18;4.85;;;;;;;;;;5056068;28;20107;-61
2023/07/03 11:35:12;;;;;;;7.95;5.88;;;;;;;;;;5055595;28;20051;-62
2023/07/03 11:37:43;;;;;;;7.97;6.00;;;;;;;;;;5037244;28;20051;-59
2023/07/03 11:40:27;;;;;;;6.95;5.32;;;;;;;;;;5057945;28;20048;-60
2023/07/03 11:43:08;;;;;;;7.72;5.03;;;;;;;;;;5056698;28;20028;-59
2023/07/03 11:45:33;;;;;;;7.07;5.47;;;;;;;;;;5056392;28;20215;-60
2023/07/03 11:47:58;;;;;;;7.50;5.33;;;;;;;;;;5040405;28;20116;-60
2023/07/03 11:50:30;;;;;;;7.03;5.27;;;;;;;;;;5036775;28;20153;-61
2023/07/03 11:52:55;;;;;;;7.00;5.45;;;;;;;;;;5058148;28;20279;-60
2023/07/03 11:55:21;;;;;;;6.10;4.67;;;;;;;;;;5055355;28;20063;-60
2023/07/03 11:57:49;;;;;;;6.15;4.70;;;;;;;;;;5040549;28;20283;-60
2023/07/03 12:00:14;;;;;;;6.07;4.85;;;;;;;;;;5040739;28;20048;-59
2023/07/03 12:02:39;;;;;;;6.90;4.90;;;;;;;;;;5043309;28;20063;-60
2023/07/03 12:05:05;;;;;;;6.70;5.00;;;;;;;;;;5058126;28;20290;-59
2023/07/03 12:07:31;;;;;;;7.00;4.95;;;;;;;;;;5059288;28;20013;-59
2023/07/03 12:10:15;;;;;;;6.37;4.80;;;;;;;;;;5058035;28;20377;-62
2023/07/03 12:12:40;;;;;;;6.03;4.80;;;;;;;;;;5059030;28;20275;-60
2023/07/03 12:15:10;;;;;;;6.60;4.80;;;;;;;;;;5058639;28;20061;-62
2023/07/03 12:17:36;;;;;;;5.53;4.72;;;;;;;;;;5054987;28;20279;-61
2023/07/03 12:20:05;;;;;;;6.75;4.70;;;;;;;;;;5046763;28;20140;-59
2023/07/03 12:22:31;;;;;;;5.50;4.30;;;;;;;;;;5034388;28;20643;-59
2023/07/03 12:25:06;;;;;;;6.87;4.50;;;;;;;;;;5029017;28;20051;-60
2023/07/03 12:27:31;;;;;;;7.20;4.93;;;;;;;;;;5046917;28;20387;-60
2023/07/03 12:29:56;;;;;;;7.00;4.97;;;;;;;;;;5040086;28;20119;-59
2023/07/03 12:32:26;;;;;;;5.70;4.03;;;;;;;;;;5063831;28;20041;-59
2023/07/03 12:34:52;;;;;;;5.32;4.22;;;;;;;;;;5059628;28;20056;-60
2023/07/03 12:37:18;;;;;;;5.88;4.60;;;;;;;;;;5033031;28;20501;-60
2023/07/03 12:39:44;;;;;;;5.78;4.68;;;;;;;;;;5054166;28;20539;-60
2023/07/03 12:42:10;;;;;;;6.43;4.43;;;;;;;;;;5048252;28;20041;-61
2023/07/03 12:44:36;;;;;;;5.45;4.07;;;;;;;;;;5048352;28;20621;-59
2023/07/03 12:47:08;;;;;;;6.57;4.50;;;;;;;;;;5066662;28;20502;-61
2023/07/03 12:49:34;;;;;;;5.80;4.28;;;;;;;;;;5057214;28;20283;-60
2023/07/03 12:52:01;;;;;;;5.13;4.10;;;;;;;;;;5040287;28;20142;-58
2023/07/03 12:54:26;;;;;;;6.05;4.20;;;;;;;;;;5045330;28;20045;-61
2023/07/03 12:56:52;;;;;;;7.13;4.43;;;;;;;;;;5046950;28;20551;-63
2023/07/03 12:59:18;;;;;;;6.80;4.65;;;;;;;;;;5043569;28;20601;-59
2023/07/03 13:01:46;;;;;;;5.40;4.07;;;;;;;;;;5052905;28;20805;-61
2023/07/03 13:04:11;;;;;;;6.07;3.80;;;;;;;;;;5027125;28;20056;-61
2023/07/03 13:06:36;;;;;;;5.97;4.50;;;;;;;;;;5051717;28;20028;-60
2023/07/03 13:09:02;;;;;;;5.83;3.93;;;;;;;;;;5046150;28;20048;-59
2023/07/03 13:11:31;;;;;;;5.65;3.90;;;;;;;;;;5046387;28;20041;-61
2023/07/03 13:14:10;;;;;;;5.22;4.22;;;;;;;;;;5063767;28;20052;-60
2023/07/03 13:16:35;;;;;;;6.23;4.20;;;;;;;;;;5059085;28;20021;-60
2023/07/03 13:19:01;;;;;;;6.67;4.40;;;;;;;;;;5058302;28;20086;-60
2023/07/03 13:21:26;;;;;;;5.30;3.83;;;;;;;;;;5046799;28;20285;-60
2023/07/03 13:23:51;;;;;;;6.53;4.00;;;;;;;;;;5052091;28;20459;-60
2023/07/03 13:26:20;;;;;;;5.13;3.70;;;;;;;;;;5052805;28;20060;-60
2023/07/03 13:28:55;;;;;;;5.87;3.80;;;;;;;;;;5062442;28;20295;-60
2023/07/03 13:31:21;;;;;;;6.55;4.00;;;;;;;;;;5030006;28;20106;-60
2023/07/03 13:34:03;;;;;;;6.82;4.20;;;;;;;;;;5047201;28;20513;-60
2023/07/03 13:36:30;;;;;;;6.05;3.72;;;;;;;;;;5044382;28;20057;-59
2023/07/03 13:39:02;;;;;;;5.38;3.63;;;;;;;;;;5046211;28;20025;-58
2023/07/03 13:41:27;;;;;;;5.25;3.72;;;;;;;;;;5045313;28;20033;-59
2023/07/03 13:43:58;;;;;;;4.75;3.50;;;;;;;;;;5046025;28;20032;-59
2023/07/03 13:46:24;;;;;;;4.68;3.40;;;;;;;;;;5045229;28;20132;-59
2023/07/03 13:48:49;;;;;;;5.50;3.50;;;;;;;;;;5062805;28;20021;-65
2023/07/03 13:51:15;;;;;;;4.70;3.60;;;;;;;;;;5041406;28;20027;-63
2023/07/03 13:53:40;;;;;;;5.57;3.70;;;;;;;;;;5064942;28;20287;-63
2023/07/03 13:56:05;;;;;;;5.43;3.83;;;;;;;;;;5050927;28;20017;-64
2023/07/03 13:58:31;;;;;;;4.73;3.37;;;;;;;;;;5047859;28;20132;-63
2023/07/03 14:00:57;;;;;;;5.53;3.67;;;;;;;;;;5062471;28;20024;-64
2023/07/03 14:03:22;;;;;;;4.75;3.28;;;;;;;;;;5065406;28;20028;-64
2023/07/03 14:05:47;;;;;;;4.90;3.17;;;;;;;;;;5064916;28;20021;-64
2023/07/03 14:08:12;;;;;;;6.67;3.73;;;;;;;;;;5049495;28;20029;-63
2023/07/03 14:10:38;;;;;;;4.83;3.07;;;;;;;;;;5044734;28;21290;-65
2023/07/03 14:13:03;;;;;;;4.63;3.30;;;;;;;;;;5051826;28;20317;-62
2023/07/03 14:15:28;;;;;;;4.33;3.10;;;;;;;;;;5046849;28;20021;-63
2023/07/03 14:17:53;;;;;;;3.65;2.55;;;;;;;;;;5061107;28;20487;-64
2023/07/03 14:20:19;;;;;;;5.33;3.23;;;;;;;;;;5040644;28;20025;-62
2023/07/03 14:22:44;;;;;;;6.03;3.25;;;;;;;;;;5045612;28;20833;-65
2023/07/03 14:25:10;;;;;;;6.27;3.20;;;;;;;;;;5044975;28;20052;-63